To NAV CANADA Home Page Login to a new session Search on AWWS site Feedback and Comments Disclaimer Vers la page française équivalente Tips FAQ What's new on the site To the Forecasts and Observations / NOTAM section To "File a Flight Plan" website Publications and other links Update of the User's profile FIC Telephone Numbers My Weather Data Folder Route Weather Data Regional Weather Data Local Weather Data To the Forecasts and Observations / NOTAM section
Request Generated 05/28/2015 at 17:44:47 UTC . Weather information available at that time is displayed.

METAR/TAF

SWIFT CURRENT/SK    (show WxCam)

METAR CYYN 281700Z AUTO 36014G20KT 9SM FEW065 BKN090 BKN120 16/10
A3000 RMK SLP162 DENSITY ALT 3300FT=
METAR CYYN 281600Z AUTO 34016G21KT 9SM SCT080 SCT093 BKN120 18/09
A2998 RMK SLP151 DENSITY ALT 3500FT=
SPECI CYYN 281526Z AUTO 33015G20KT 9SM FEW070 18/09 A2997 RMK SLP147
DENSITY ALT 3600FT=
METAR CYYN 281500Z AUTO 30005KT 9SM OVC070 16/09 A2996 RMK SLP146
DENSITY ALT 3300FT=

TAF CYYN 281738Z 2818/2906 36015G25KT P6SM SCT030 BKN090 TEMPO
2818/2821 P6SM -SHRA BKN030 PROB30 2818/2821 VRB20G30KT 4SM TSRA
BKN030CB
FM282100 36018G28KT P6SM SCT020 BKN040 TEMPO 2821/2823 BKN020
FM290100 02012G22KT P6SM SKC
RMK FCST BASED ON AUTO OBS. NXT FCST BY 290000Z=
Your time UTC time
Weather data provided by Environment Canada and NAV CANADA